Woodland Park, Colorado
Current Conditions -  °F | °C
As of 11:58 AM on Friday 31 Oct 2014 (Local Time) from KAFF Reporting Station
Clear Clear  
Wind Chill: 32°   Ceiling: Unl
Heat Index: 39°   Visibility: 10mi
Dew Point: 27°   Wind: 13mph
Humidity: 60%   Direction: 170°S
Pressure: 30.33"   Gusts: NA
Location:  38.99°N, 105.05°W
Report Text: KAFF 311758Z AUTO 17011KT 10SM CLR 04/M03 A3033 RMK AO2 SLP283 T00411030 10044 21011 57018
Loading
Personal Weather Stations






























Interactive Weather Map
Tropical Storm Tracking
New forecast layout! Learn more

10-Day Weather Forecast

Advertisements
Track Severe Weather on mobile